createdAt,value
2023-04-07T00:02:12.436Z,8.00
2023-04-07T00:04:41.428Z,8.00
2023-04-07T00:07:08.527Z,8.00
2023-04-07T00:09:35.360Z,8.00
2023-04-07T00:12:07.072Z,8.00
2023-04-07T00:14:36.047Z,7.90
2023-04-07T00:17:02.766Z,7.90
2023-04-07T00:19:29.433Z,7.90
2023-04-07T00:21:56.093Z,7.90
2023-04-07T00:24:33.326Z,7.90
2023-04-07T00:27:01.040Z,7.90
2023-04-07T00:29:27.858Z,7.80
2023-04-07T00:31:56.729Z,7.80
2023-04-07T00:34:23.473Z,7.80
2023-04-07T00:36:52.285Z,7.70
2023-04-07T00:39:19.640Z,7.70
2023-04-07T00:41:46.828Z,7.70
2023-04-07T00:44:14.507Z,7.70
2023-04-07T00:46:42.022Z,7.60
2023-04-07T00:49:11.060Z,7.70
2023-04-07T00:51:38.171Z,7.70
2023-04-07T00:54:05.461Z,7.60
2023-04-07T00:56:32.690Z,7.50
2023-04-07T00:58:59.380Z,7.60
2023-04-07T01:01:32.306Z,7.50
2023-04-07T01:04:08.166Z,7.50
2023-04-07T01:06:40.421Z,7.50
2023-04-07T01:09:09.882Z,7.40
2023-04-07T01:11:57.064Z,7.50
2023-04-07T01:14:24.724Z,7.50
2023-04-07T01:16:54.697Z,7.50
2023-04-07T01:19:24.917Z,7.50
2023-04-07T01:21:52.915Z,7.50
2023-04-07T01:24:30.000Z,7.50
2023-04-07T01:27:08.569Z,7.60
2023-04-07T01:29:40.422Z,7.50
2023-04-07T01:32:13.640Z,7.50
2023-04-07T01:34:41.834Z,7.50
2023-04-07T01:37:09.725Z,7.50
2023-04-07T01:39:38.210Z,7.50
2023-04-07T01:42:06.416Z,7.50
2023-04-07T01:44:38.307Z,7.40
2023-04-07T01:47:06.169Z,7.40
2023-04-07T01:49:35.518Z,7.40
2023-04-07T01:52:02.929Z,7.40
2023-04-07T01:54:29.790Z,7.40
2023-04-07T01:56:56.687Z,7.30
2023-04-07T01:59:23.453Z,7.30
2023-04-07T02:01:50.512Z,7.30
2023-04-07T02:04:35.376Z,7.20
2023-04-07T02:07:10.742Z,7.20
2023-04-07T02:09:40.572Z,7.20
2023-04-07T02:12:12.898Z,7.10
2023-04-07T02:14:40.355Z,7.00
2023-04-07T02:17:10.053Z,6.90
2023-04-07T02:19:36.886Z,6.90
2023-04-07T02:22:07.642Z,6.80
2023-04-07T02:24:34.303Z,6.80
2023-04-07T02:27:02.104Z,6.80
2023-04-07T02:29:28.876Z,6.80
2023-04-07T02:31:56.333Z,6.80
2023-04-07T02:34:23.047Z,6.80
2023-04-07T02:36:52.572Z,6.80
2023-04-07T02:39:19.260Z,6.80
2023-04-07T02:41:46.061Z,6.80
2023-04-07T02:44:15.273Z,6.80
2023-04-07T02:46:44.171Z,6.80
2023-04-07T02:49:13.282Z,6.70
2023-04-07T02:51:39.961Z,6.70
2023-04-07T02:54:06.706Z,6.60
2023-04-07T02:56:35.558Z,6.60
2023-04-07T02:59:04.770Z,6.60
2023-04-07T03:01:31.532Z,6.40
2023-04-07T03:03:58.538Z,6.40
2023-04-07T03:06:27.431Z,6.40
2023-04-07T03:08:54.083Z,6.40
2023-04-07T03:11:23.257Z,6.40
2023-04-07T03:13:49.949Z,6.40
2023-04-07T03:16:16.755Z,6.40
2023-04-07T03:18:43.429Z,6.40
2023-04-07T03:21:13.229Z,6.40
2023-04-07T03:23:42.327Z,6.40
2023-04-07T03:26:09.122Z,6.40
2023-04-07T03:28:38.710Z,6.30
2023-04-07T03:31:05.481Z,6.40
2023-04-07T03:33:32.139Z,6.40
2023-04-07T03:35:58.930Z,6.30
2023-04-07T03:38:26.554Z,6.30
2023-04-07T03:40:55.820Z,6.30
2023-04-07T03:43:22.730Z,6.30
2023-04-07T03:45:51.572Z,6.30
2023-04-07T03:48:18.365Z,6.30
2023-04-07T03:50:46.497Z,6.30
2023-04-07T03:53:16.775Z,6.30
2023-04-07T03:55:43.645Z,6.30
2023-04-07T03:58:10.690Z,6.30
2023-04-07T04:00:37.604Z,6.30
2023-04-07T04:03:06.730Z,6.30
2023-04-07T04:05:33.456Z,6.30
2023-04-07T04:08:00.139Z,6.30
2023-04-07T04:10:27.230Z,6.30
2023-04-07T04:12:53.897Z,6.20
2023-04-07T04:15:22.897Z,6.30
2023-04-07T04:17:49.552Z,6.30
2023-04-07T04:20:18.762Z,6.30
2023-04-07T04:22:47.962Z,6.40
2023-04-07T04:25:17.370Z,6.40
2023-04-07T04:27:44.062Z,6.40
2023-04-07T04:30:11.037Z,6.40
2023-04-07T04:32:37.786Z,6.30
2023-04-07T04:35:07.075Z,6.30
2023-04-07T04:37:33.735Z,6.30
2023-04-07T04:40:00.402Z,6.30
2023-04-07T04:42:27.860Z,6.30
2023-04-07T04:44:54.571Z,6.30
2023-04-07T04:47:21.385Z,6.30
2023-04-07T04:49:48.184Z,6.40
2023-04-07T04:52:14.861Z,6.40
2023-04-07T04:54:41.581Z,6.40
2023-04-07T04:57:08.185Z,6.50
2023-04-07T04:59:37.414Z,6.50
2023-04-07T05:02:04.210Z,6.50
2023-04-07T05:04:31.190Z,6.50
2023-04-07T05:07:02.640Z,6.60
2023-04-07T05:09:31.689Z,6.60
2023-04-07T05:11:58.397Z,6.60
2023-04-07T05:14:25.322Z,6.60
2023-04-07T05:16:52.857Z,6.50
2023-04-07T05:19:21.723Z,6.50
2023-04-07T05:21:48.386Z,6.50
2023-04-07T05:24:15.099Z,6.60
2023-04-07T05:26:41.847Z,6.60
2023-04-07T05:29:11.253Z,6.70
2023-04-07T05:31:41.137Z,6.70
2023-04-07T05:34:07.935Z,6.70
2023-04-07T05:36:37.896Z,6.80
2023-04-07T05:39:04.658Z,6.80
2023-04-07T05:41:33.887Z,6.80
2023-04-07T05:44:00.602Z,6.90
2023-04-07T05:46:29.764Z,6.90
2023-04-07T05:48:56.663Z,7.00
2023-04-07T05:51:28.725Z,7.00
2023-04-07T05:53:57.810Z,7.10
2023-04-07T05:56:24.505Z,7.10
2023-04-07T05:58:53.709Z,7.10
2023-04-07T06:01:26.895Z,7.10
2023-04-07T06:03:53.734Z,7.20
2023-04-07T06:06:22.869Z,7.20
2023-04-07T06:08:51.877Z,7.30
2023-04-07T06:11:21.113Z,7.40
2023-04-07T06:13:48.062Z,7.40
2023-04-07T06:16:16.316Z,7.50
2023-04-07T06:18:46.319Z,7.50
2023-04-07T06:21:15.760Z,7.50
2023-04-07T06:23:44.774Z,7.50
2023-04-07T06:26:12.352Z,7.60
2023-04-07T06:28:41.597Z,7.60
2023-04-07T06:31:08.843Z,7.60
2023-04-07T06:33:35.871Z,7.60
2023-04-07T06:36:02.774Z,7.60
2023-04-07T06:38:31.733Z,7.70
2023-04-07T06:40:58.496Z,7.80
2023-04-07T06:43:25.238Z,7.90
2023-04-07T06:45:51.923Z,7.90
2023-04-07T06:48:18.604Z,8.10
2023-04-07T06:50:52.275Z,8.20
2023-04-07T06:53:18.955Z,8.30
2023-04-07T06:55:45.828Z,8.40
2023-04-07T06:58:15.627Z,8.50
2023-04-07T07:00:42.308Z,8.70
2023-04-07T07:03:09.162Z,8.80
2023-04-07T07:05:36.445Z,9.00
2023-04-07T07:08:03.186Z,9.30
2023-04-07T07:10:32.087Z,9.50
2023-04-07T07:12:58.875Z,9.70
2023-04-07T07:15:27.806Z,9.80
2023-04-07T07:17:56.742Z,10.00
2023-04-07T07:20:23.653Z,9.80
2023-04-07T07:22:50.936Z,9.70
2023-04-07T07:25:17.816Z,9.70
2023-04-07T07:27:44.962Z,9.70
2023-04-07T07:30:11.863Z,9.70
2023-04-07T07:32:41.129Z,9.70
2023-04-07T07:35:10.850Z,9.70
2023-04-07T07:37:40.278Z,9.70
2023-04-07T07:40:09.601Z,9.70
2023-04-07T07:42:38.924Z,9.70
2023-04-07T07:45:06.151Z,9.70
2023-04-07T07:47:33.014Z,9.80
2023-04-07T07:49:59.736Z,9.90
2023-04-07T07:52:26.358Z,10.00
2023-04-07T07:54:53.041Z,10.10
2023-04-07T07:57:19.712Z,10.20
2023-04-07T07:59:46.717Z,10.40
2023-04-07T08:02:15.872Z,10.40
2023-04-07T08:04:45.437Z,10.70
2023-04-07T08:07:17.033Z,10.90
2023-04-07T08:09:43.897Z,11.00
2023-04-07T08:12:10.607Z,11.10
2023-04-07T08:14:39.662Z,11.10
2023-04-07T08:17:06.486Z,11.10
2023-04-07T08:19:35.589Z,11.30
2023-04-07T08:22:02.246Z,11.40
2023-04-07T08:24:32.089Z,11.50
2023-04-07T08:27:01.610Z,11.40
2023-04-07T08:29:32.803Z,11.50
2023-04-07T08:31:59.644Z,11.50
2023-04-07T08:34:28.863Z,11.60
2023-04-07T08:36:55.508Z,11.60
2023-04-07T08:39:22.924Z,11.60
2023-04-07T08:41:50.905Z,11.60
2023-04-07T08:44:21.432Z,11.50
2023-04-07T08:46:49.226Z,11.50
2023-04-07T08:49:18.286Z,11.60
2023-04-07T08:51:51.724Z,11.70
2023-04-07T08:54:19.170Z,12.00
2023-04-07T08:56:46.226Z,12.20
2023-04-07T08:59:18.615Z,12.30
2023-04-07T09:01:46.461Z,12.50
2023-04-07T09:04:16.729Z,12.50
2023-04-07T09:06:45.849Z,12.80
2023-04-07T09:09:15.549Z,12.90
2023-04-07T09:11:44.409Z,12.90
2023-04-07T09:14:11.206Z,13.10
2023-04-07T09:16:40.521Z,13.00
2023-04-07T09:19:07.259Z,13.10
2023-04-07T09:21:51.283Z,13.10
2023-04-07T09:24:21.973Z,13.30
2023-04-07T09:26:50.831Z,13.50
2023-04-07T09:29:23.143Z,13.50
2023-04-07T09:31:52.088Z,13.30
2023-04-07T09:34:40.375Z,13.30
2023-04-07T09:37:11.775Z,13.40
2023-04-07T09:39:50.703Z,13.50
2023-04-07T09:42:17.439Z,13.40
2023-04-07T09:44:44.732Z,13.70
2023-04-07T09:47:13.960Z,13.80
2023-04-07T09:49:54.561Z,13.90
2023-04-07T09:52:47.166Z,13.90
2023-04-07T09:55:15.976Z,13.80
2023-04-07T09:57:45.379Z,13.90
2023-04-07T10:00:12.734Z,13.90
2023-04-07T10:02:39.801Z,14.10
2023-04-07T10:05:07.334Z,14.20
2023-04-07T10:07:34.842Z,14.20
2023-04-07T10:10:01.647Z,14.10
2023-04-07T10:12:28.866Z,14.10
2023-04-07T10:14:57.173Z,13.80
2023-04-07T10:17:24.850Z,13.80
2023-04-07T10:19:52.260Z,13.60
2023-04-07T10:22:25.122Z,13.50
2023-04-07T10:24:58.640Z,13.30
2023-04-07T10:27:36.396Z,13.50
2023-04-07T10:30:11.926Z,13.50
2023-04-07T10:32:52.519Z,13.50
2023-04-07T10:35:21.873Z,13.40
2023-04-07T10:38:06.804Z,13.10
2023-04-07T10:40:36.923Z,13.20
2023-04-07T10:43:11.422Z,13.20
2023-04-07T10:45:52.211Z,13.40
2023-04-07T10:48:20.371Z,13.50
2023-04-07T10:51:21.902Z,13.50
2023-04-07T10:54:23.772Z,13.40
2023-04-07T10:57:02.877Z,13.30
2023-04-07T10:59:30.094Z,13.30
2023-04-07T11:02:15.417Z,13.30
2023-04-07T11:04:49.156Z,13.30
2023-04-07T11:07:16.385Z,13.30
2023-04-07T11:09:43.329Z,13.30
2023-04-07T11:12:22.788Z,13.50
2023-04-07T11:14:51.794Z,13.50
2023-04-07T11:17:21.111Z,13.50
2023-04-07T11:19:54.970Z,13.60
2023-04-07T11:24:53.629Z,13.70
2023-04-07T11:27:23.024Z,13.60
2023-04-07T11:29:50.334Z,13.70
2023-04-07T11:32:26.180Z,13.80
2023-04-07T11:34:55.220Z,14.00
2023-04-07T11:37:24.396Z,14.40
2023-04-07T11:39:54.904Z,14.70
2023-04-07T11:42:37.637Z,15.10
2023-04-07T11:45:06.574Z,15.30
2023-04-07T11:47:39.800Z,15.60
2023-04-07T11:50:07.650Z,15.90
2023-04-07T11:52:51.161Z,16.20
2023-04-07T11:55:24.524Z,16.30
2023-04-07T11:57:56.295Z,16.40
2023-04-07T12:00:23.375Z,16.50
2023-04-07T12:02:53.165Z,16.50
2023-04-07T12:05:22.676Z,16.60
2023-04-07T12:07:57.956Z,16.60
2023-04-07T12:10:26.341Z,16.50
2023-04-07T12:12:53.399Z,16.50
2023-04-07T12:15:20.601Z,16.40
2023-04-07T12:17:51.343Z,16.40
2023-04-07T12:20:20.259Z,16.30
2023-04-07T12:22:47.273Z,16.20
2023-04-07T12:25:13.954Z,16.20
2023-04-07T12:27:43.686Z,16.10
2023-04-07T12:30:12.645Z,16.00
2023-04-07T12:32:42.632Z,15.90
2023-04-07T12:35:09.432Z,15.80
2023-04-07T12:37:38.508Z,15.60
2023-04-07T12:40:08.316Z,15.60
2023-04-07T12:42:34.973Z,15.60
2023-04-07T12:45:03.015Z,15.50
2023-04-07T12:47:32.458Z,15.30
2023-04-07T12:50:04.458Z,15.20
2023-04-07T12:52:33.404Z,15.10
2023-04-07T12:55:00.135Z,15.00
2023-04-07T12:57:32.780Z,14.90
2023-04-07T12:59:59.593Z,14.90
2023-04-07T13:02:26.644Z,14.80
2023-04-07T13:04:55.706Z,14.70
2023-04-07T13:07:24.490Z,14.60
2023-04-07T13:09:51.173Z,14.50
2023-04-07T13:12:17.909Z,14.40
2023-04-07T13:14:57.089Z,14.40
2023-04-07T13:17:26.326Z,14.30
2023-04-07T13:19:53.161Z,14.40
2023-04-07T13:22:22.056Z,14.40
2023-04-07T13:24:52.592Z,14.40
2023-04-07T13:27:21.733Z,14.50
2023-04-07T13:29:48.857Z,14.50
2023-04-07T13:32:15.897Z,14.50
2023-04-07T13:34:42.795Z,14.50
2023-04-07T13:37:09.485Z,14.60
2023-04-07T13:39:38.387Z,14.70
2023-04-07T13:42:05.397Z,14.60
2023-04-07T13:44:34.353Z,14.60
2023-04-07T13:47:01.488Z,14.50
2023-04-07T13:49:30.848Z,14.40
2023-04-07T13:51:57.579Z,14.10
2023-04-07T13:54:29.018Z,13.90
2023-04-07T13:56:55.832Z,13.50
2023-04-07T13:59:24.976Z,13.40
2023-04-07T14:01:51.748Z,13.20
2023-04-07T14:04:18.484Z,12.90
2023-04-07T14:06:47.682Z,12.70
2023-04-07T14:09:14.370Z,12.50
2023-04-07T14:11:41.341Z,12.40
2023-04-07T14:14:10.267Z,12.40
2023-04-07T14:16:37.691Z,12.30
2023-04-07T14:19:04.905Z,12.20
2023-04-07T14:21:31.833Z,12.20
2023-04-07T14:23:58.526Z,12.20
2023-04-07T14:26:26.453Z,12.10
2023-04-07T14:28:53.548Z,12.10
2023-04-07T14:31:20.977Z,12.20
2023-04-07T14:33:48.068Z,12.10
2023-04-07T14:36:18.041Z,12.10
2023-04-07T14:38:46.950Z,12.10
2023-04-07T14:41:13.693Z,12.10
2023-04-07T14:43:41.220Z,12.20
2023-04-07T14:46:08.382Z,12.20
2023-04-07T14:48:37.552Z,12.20
2023-04-07T14:51:10.179Z,12.20
2023-04-07T14:53:39.770Z,12.30
2023-04-07T14:56:09.299Z,12.40
2023-04-07T14:58:37.632Z,12.40
2023-04-07T15:01:07.644Z,12.50
2023-04-07T15:03:37.416Z,12.70
2023-04-07T15:06:10.072Z,13.00
2023-04-07T15:08:37.530Z,13.20
2023-04-07T15:11:10.518Z,13.50
2023-04-07T15:13:37.443Z,13.70
2023-04-07T15:16:14.094Z,13.90
2023-04-07T15:18:42.891Z,14.10
2023-04-07T15:21:10.622Z,14.20
2023-04-07T15:23:38.537Z,14.30
2023-04-07T15:26:06.342Z,14.50
2023-04-07T15:28:33.282Z,14.60
2023-04-07T15:31:02.673Z,14.60
2023-04-07T15:33:29.536Z,14.50
2023-04-07T15:35:57.003Z,14.50
2023-04-07T15:38:26.448Z,14.50
2023-04-07T15:40:55.632Z,14.40
2023-04-07T15:43:22.726Z,14.50
2023-04-07T15:45:49.821Z,14.50
2023-04-07T15:48:18.326Z,15.00
2023-04-07T15:50:45.704Z,15.50
2023-04-07T15:53:15.481Z,15.40
2023-04-07T15:55:44.187Z,15.30
2023-04-07T15:58:13.477Z,15.20
2023-04-07T16:00:40.823Z,15.00
2023-04-07T16:03:08.281Z,14.80
2023-04-07T16:05:35.283Z,14.60
2023-04-07T16:08:04.369Z,14.40
2023-04-07T16:10:33.397Z,14.30
2023-04-07T16:13:02.386Z,14.10
2023-04-07T16:15:39.980Z,13.90
2023-04-07T16:18:12.192Z,13.80
2023-04-07T16:20:46.655Z,13.60
2023-04-07T16:23:18.160Z,13.50
2023-04-07T16:25:45.300Z,13.40
2023-04-07T16:28:14.216Z,13.30
2023-04-07T16:30:41.407Z,13.20
2023-04-07T16:33:08.491Z,13.10
2023-04-07T16:35:35.731Z,13.10
2023-04-07T16:38:05.949Z,13.00
2023-04-07T16:40:32.915Z,13.00
2023-04-07T16:42:59.927Z,12.90
2023-04-07T16:45:27.037Z,12.90
2023-04-07T16:47:53.850Z,12.90
2023-04-07T16:50:21.568Z,12.90
2023-04-07T16:52:48.278Z,12.90
2023-04-07T16:55:15.059Z,12.90
2023-04-07T16:57:42.018Z,12.90
2023-04-07T17:00:09.272Z,12.90
2023-04-07T17:02:38.778Z,12.90
2023-04-07T17:05:06.200Z,12.90
2023-04-07T17:07:33.226Z,12.90
2023-04-07T17:10:00.387Z,12.90
2023-04-07T17:12:29.371Z,12.90
2023-04-07T17:14:56.221Z,12.80
2023-04-07T17:17:23.115Z,12.80
2023-04-07T17:19:50.004Z,12.80
2023-04-07T17:22:16.828Z,12.70
2023-04-07T17:24:43.856Z,12.70
2023-04-07T17:27:13.169Z,12.70
2023-04-07T17:29:39.926Z,12.70
2023-04-07T17:32:07.939Z,12.70
2023-04-07T17:34:34.806Z,12.60
2023-04-07T17:37:01.552Z,12.60
2023-04-07T17:39:28.432Z,12.50
2023-04-07T17:41:57.615Z,12.50
2023-04-07T17:44:24.340Z,12.40
2023-04-07T17:46:51.536Z,12.40
2023-04-07T17:49:18.733Z,12.40
2023-04-07T17:51:47.828Z,12.30
2023-04-07T17:54:16.252Z,12.30
2023-04-07T17:56:46.262Z,12.30
2023-04-07T17:59:13.528Z,12.20
2023-04-07T18:01:42.998Z,12.10
2023-04-07T18:04:10.312Z,12.00
2023-04-07T18:06:37.352Z,12.00
2023-04-07T18:09:04.953Z,11.90
2023-04-07T18:11:32.840Z,11.90
2023-04-07T18:14:00.583Z,11.80
2023-04-07T18:16:27.746Z,11.80
2023-04-07T18:18:56.979Z,11.80
2023-04-07T18:21:24.112Z,11.80
2023-04-07T18:23:51.431Z,11.80
2023-04-07T18:26:18.354Z,11.70
2023-04-07T18:28:45.197Z,11.70
2023-04-07T18:31:12.553Z,11.70
2023-04-07T18:33:39.563Z,11.60
2023-04-07T18:36:07.830Z,11.60
2023-04-07T18:38:39.202Z,11.60
2023-04-07T18:41:09.617Z,11.60
2023-04-07T18:43:36.543Z,11.60
2023-04-07T18:46:03.827Z,11.50
2023-04-07T18:48:33.344Z,11.50
2023-04-07T18:51:00.460Z,11.50
2023-04-07T18:53:27.490Z,11.50
2023-04-07T18:55:54.414Z,11.50
2023-04-07T18:58:26.514Z,11.40
2023-04-07T19:00:54.782Z,11.40
2023-04-07T19:03:22.165Z,11.40
2023-04-07T19:05:52.510Z,11.30
2023-04-07T19:08:20.072Z,11.30
2023-04-07T19:10:48.056Z,11.30
2023-04-07T19:13:16.355Z,11.30
2023-04-07T19:15:46.314Z,11.30
2023-04-07T19:18:13.581Z,11.30
2023-04-07T19:20:40.660Z,11.30
2023-04-07T19:23:08.062Z,11.30
2023-04-07T19:25:35.557Z,11.20
2023-04-07T19:28:03.567Z,11.20
2023-04-07T19:30:30.519Z,11.20
2023-04-07T19:32:59.917Z,11.10
2023-04-07T19:35:27.253Z,11.10
2023-04-07T19:37:56.870Z,11.10
2023-04-07T19:40:24.785Z,11.10
2023-04-07T19:42:51.958Z,11.10
2023-04-07T19:45:19.194Z,11.10
2023-04-07T19:47:47.380Z,11.10
2023-04-07T19:50:17.569Z,11.00
2023-04-07T19:52:45.523Z,11.00
2023-04-07T19:55:16.851Z,11.00
2023-04-07T19:57:43.696Z,11.00
2023-04-07T20:00:11.831Z,11.00
2023-04-07T20:02:39.004Z,11.00
2023-04-07T20:05:06.141Z,10.90
2023-04-07T20:07:33.365Z,10.90
2023-04-07T20:10:03.845Z,10.90
2023-04-07T20:12:30.766Z,10.90
2023-04-07T20:14:59.921Z,10.90
2023-04-07T20:17:26.750Z,10.80
2023-04-07T20:19:55.261Z,10.80
2023-04-07T20:22:22.858Z,10.90
2023-04-07T20:24:51.894Z,10.80
2023-04-07T20:27:21.187Z,10.80
2023-04-07T20:29:48.066Z,10.80
2023-04-07T20:32:17.228Z,10.80
2023-04-07T20:34:48.218Z,10.80
2023-04-07T20:37:17.828Z,10.80
2023-04-07T20:39:44.840Z,10.70
2023-04-07T20:42:14.001Z,10.70
2023-04-07T20:44:40.969Z,10.70
2023-04-07T20:47:12.429Z,10.70
2023-04-07T20:49:41.155Z,10.70
2023-04-07T20:52:10.602Z,10.60
2023-04-07T20:54:37.388Z,10.60
2023-04-07T20:57:04.108Z,10.60
2023-04-07T20:59:31.962Z,10.50
2023-04-07T21:02:01.447Z,10.60
2023-04-07T21:04:28.485Z,10.60
2023-04-07T21:06:57.466Z,10.60
2023-04-07T21:09:24.132Z,10.60
2023-04-07T21:11:50.940Z,10.50
2023-04-07T21:14:17.701Z,10.50
2023-04-07T21:16:44.787Z,10.50
2023-04-07T21:19:11.555Z,10.50
2023-04-07T21:21:40.712Z,10.40
2023-04-07T21:24:09.689Z,10.40
2023-04-07T21:26:38.686Z,10.40
2023-04-07T21:29:05.433Z,10.30
2023-04-07T21:31:35.271Z,10.20
2023-04-07T21:34:02.247Z,10.10
2023-04-07T21:36:29.220Z,10.00
2023-04-07T21:38:56.029Z,10.00
2023-04-07T21:41:22.871Z,9.90
2023-04-07T21:43:49.790Z,9.80
2023-04-07T21:46:16.823Z,9.70
2023-04-07T21:48:46.104Z,9.70
2023-04-07T21:51:12.858Z,9.60
2023-04-07T21:53:40.467Z,9.60
2023-04-07T21:56:10.321Z,9.60
2023-04-07T21:58:39.274Z,9.50
2023-04-07T22:01:06.012Z,9.40
2023-04-07T22:03:32.895Z,9.40
2023-04-07T22:06:00.357Z,9.30
2023-04-07T22:08:27.274Z,9.30
2023-04-07T22:10:54.531Z,9.20
2023-04-07T22:13:21.182Z,9.20
2023-04-07T22:15:47.980Z,9.10
2023-04-07T22:18:17.008Z,9.10
2023-04-07T22:20:43.735Z,9.10
2023-04-07T22:23:10.667Z,9.00
2023-04-07T22:25:37.323Z,9.00
2023-04-07T22:28:03.958Z,8.90
2023-04-07T22:30:30.725Z,8.90
2023-04-07T22:32:57.484Z,8.80
2023-04-07T22:35:26.427Z,8.80
2023-04-07T22:37:53.194Z,8.80
2023-04-07T22:40:19.905Z,8.80
2023-04-07T22:42:46.482Z,8.80
2023-04-07T22:45:15.319Z,8.80
2023-04-07T22:47:42.053Z,8.80
2023-04-07T22:50:09.196Z,8.80
2023-04-07T22:52:37.969Z,8.90
2023-04-07T22:55:05.188Z,8.90
2023-04-07T22:57:34.426Z,8.90
2023-04-07T23:00:01.053Z,8.90
2023-04-07T23:02:27.814Z,8.90
2023-04-07T23:04:55.201Z,9.00
2023-04-07T23:07:21.893Z,9.00
2023-04-07T23:09:48.565Z,9.00
2023-04-07T23:12:15.575Z,9.00
2023-04-07T23:14:42.250Z,9.00
2023-04-07T23:17:09.026Z,9.10
2023-04-07T23:19:38.026Z,9.10
2023-04-07T23:22:04.774Z,9.10
2023-04-07T23:24:33.914Z,9.10
2023-04-07T23:27:02.851Z,9.10
2023-04-07T23:29:29.542Z,9.10
2023-04-07T23:31:56.546Z,9.20
2023-04-07T23:34:23.236Z,9.10
2023-04-07T23:36:52.898Z,9.10
2023-04-07T23:39:19.658Z,9.10
2023-04-07T23:41:46.742Z,9.10
2023-04-07T23:44:13.411Z,9.10
2023-04-07T23:46:42.965Z,9.10
2023-04-07T23:49:12.052Z,9.10
2023-04-07T23:51:40.977Z,9.10
2023-04-07T23:54:07.745Z,9.10
2023-04-07T23:56:34.478Z,9.10
2023-04-07T23:59:01.173Z,9.10
